Time;durP1;ratioP1;P1;durP2;ratioP2;P2;SDS_P1;SDS_P2;PMS_P1;PMS_P2;Temp;Humidity;BMP_temperature;BMP_pressure;BME280_temperature;BME280_humidity;BME280_pressure;Samples;Min_cycle;Max_cycle;Signal;HPM_P1;HPM_P2
2022/12/04 00:00:55;;;;;;;16.52;12.48;;;19.40;32.70;;;;;;5058592;28;20413;-57
2022/12/04 00:03:21;;;;;;;16.00;12.38;;;19.40;32.70;;;;;;5058226;28;20086;-55
2022/12/04 00:05:47;;;;;;;15.95;12.48;;;19.40;32.70;;;;;;5058916;28;20045;-57
2022/12/04 00:08:12;;;;;;;17.10;11.98;;;19.40;32.70;;;;;;5055089;28;20018;-54
2022/12/04 00:10:42;;;;;;;17.80;12.23;;;19.40;32.70;;;;;;5057290;28;20053;-57
2022/12/04 00:13:08;;;;;;;15.88;11.75;;;19.40;32.70;;;;;;5057977;28;20340;-58
2022/12/04 00:15:34;;;;;;;16.75;12.80;;;19.40;32.70;;;;;;5058192;28;20043;-53
2022/12/04 00:18:00;;;;;;;16.63;12.27;;;19.40;32.60;;;;;;5054222;28;20033;-57
2022/12/04 00:20:26;;;;;;;16.23;12.23;;;19.30;32.70;;;;;;5057587;28;20429;-55
2022/12/04 00:22:51;;;;;;;18.13;12.85;;;19.30;32.60;;;;;;5057788;28;20032;-55
2022/12/04 00:25:17;;;;;;;16.08;12.15;;;19.30;32.60;;;;;;5056196;28;20024;-55
2022/12/04 00:27:43;;;;;;;16.70;12.35;;;19.30;32.60;;;;;;5034917;28;20092;-54
2022/12/04 00:30:10;;;;;;;17.67;12.35;;;19.30;32.60;;;;;;5037752;28;20025;-59
2022/12/04 00:32:36;;;;;;;16.63;12.50;;;19.30;32.50;;;;;;5044516;28;20084;-58
2022/12/04 00:35:01;;;;;;;16.08;11.55;;;19.30;32.60;;;;;;5057952;28;20060;-57
2022/12/04 00:37:27;;;;;;;16.77;12.77;;;19.30;32.50;;;;;;5057342;28;20056;-56
2022/12/04 00:39:53;;;;;;;17.38;12.40;;;19.30;32.60;;;;;;5056224;28;20025;-52
2022/12/04 00:42:19;;;;;;;15.98;12.18;;;19.30;32.60;;;;;;5037439;28;20062;-55
2022/12/04 00:44:44;;;;;;;17.02;12.57;;;19.30;32.60;;;;;;5057424;28;20490;-54
2022/12/04 00:47:10;;;;;;;18.45;12.85;;;19.30;32.50;;;;;;5057492;28;20029;-54
2022/12/04 00:49:36;;;;;;;17.23;13.15;;;19.30;32.50;;;;;;5056556;28;20064;-55
2022/12/04 00:52:02;;;;;;;17.13;12.57;;;19.30;32.50;;;;;;5055860;28;20044;-54
2022/12/04 00:54:29;;;;;;;17.10;12.07;;;19.30;32.50;;;;;;5057467;28;20060;-57
2022/12/04 00:56:55;;;;;;;16.95;12.82;;;19.30;32.50;;;;;;5056513;28;20120;-53
2022/12/04 00:59:21;;;;;;;15.85;12.20;;;19.30;32.50;;;;;;5056668;28;20551;-54
2022/12/04 01:01:47;;;;;;;17.60;13.07;;;19.20;32.40;;;;;;5057635;28;20372;-54
2022/12/04 01:04:12;;;;;;;17.70;12.90;;;19.20;32.40;;;;;;5052905;28;20055;-58
2022/12/04 01:06:38;;;;;;;17.00;12.93;;;19.20;32.40;;;;;;5056807;28;20112;-58
2022/12/04 01:09:05;;;;;;;18.30;13.15;;;19.20;32.40;;;;;;5056354;28;20044;-57
2022/12/04 01:11:31;;;;;;;16.55;12.18;;;19.20;32.40;;;;;;5056017;28;20067;-56
2022/12/04 01:13:58;;;;;;;18.05;13.63;;;19.20;32.40;;;;;;5056651;28;20460;-55
2022/12/04 01:16:28;;;;;;;17.02;12.75;;;19.20;32.40;;;;;;5055296;28;20395;-57
2022/12/04 01:18:53;;;;;;;15.75;11.95;;;19.20;32.50;;;;;;5056228;28;20395;-54
2022/12/04 01:21:20;;;;;;;16.45;12.40;;;19.20;32.40;;;;;;5056148;28;20071;-55
2022/12/04 01:23:46;;;;;;;16.52;13.38;;;19.20;32.40;;;;;;5057051;28;20047;-54
2022/12/04 01:26:12;;;;;;;16.45;11.95;;;19.20;32.40;;;;;;5056731;28;20056;-53
2022/12/04 01:28:38;;;;;;;15.77;12.18;;;19.20;32.40;;;;;;5052195;28;20065;-56
2022/12/04 01:31:12;;;;;;;17.73;12.23;;;19.20;32.40;;;;;;5055895;28;20106;-53
2022/12/04 01:33:39;;;;;;;15.10;12.30;;;19.20;32.40;;;;;;5056181;28;20527;-55
2022/12/04 01:36:07;;;;;;;18.88;12.68;;;19.20;32.40;;;;;;5038842;28;20487;-54
2022/12/04 01:38:34;;;;;;;17.75;13.00;;;19.10;32.40;;;;;;5056327;28;20029;-55
2022/12/04 01:41:00;;;;;;;15.82;12.13;;;19.20;32.40;;;;;;5054819;28;20383;-56
2022/12/04 01:43:29;;;;;;;16.10;13.15;;;19.10;32.40;;;;;;5056461;28;20163;-57
2022/12/04 01:45:57;;;;;;;17.65;13.27;;;19.10;32.40;;;;;;5055935;28;20107;-55
2022/12/04 01:48:39;;;;;;;17.20;13.65;;;19.10;32.40;;;;;;5055248;28;20071;-55
2022/12/04 01:51:16;;;;;;;15.65;11.88;;;19.10;32.40;;;;;;5055249;28;20530;-54
2022/12/04 01:53:50;;;;;;;17.75;13.25;;;19.10;32.40;;;;;;5056165;28;20333;-56
2022/12/04 01:56:18;;;;;;;17.43;12.73;;;19.10;32.40;;;;;;5056217;28;20121;-56
2022/12/04 01:58:50;;;;;;;18.02;13.50;;;19.10;32.50;;;;;;5055503;28;20329;-53
2022/12/04 02:01:16;;;;;;;16.55;12.35;;;19.10;32.50;;;;;;5054849;28;20033;-53
2022/12/04 02:03:42;;;;;;;15.60;12.02;;;19.10;32.50;;;;;;5054187;28;20021;-58
2022/12/04 02:06:07;;;;;;;16.60;12.98;;;19.10;32.50;;;;;;5055610;28;20353;-55
2022/12/04 02:08:34;;;;;;;15.57;12.43;;;19.10;32.50;;;;;;5053183;28;20025;-55
2022/12/04 02:11:25;;;;;;;15.38;12.45;;;19.10;32.50;;;;;;5054246;28;20130;-56
2022/12/04 02:14:06;;;;;;;17.58;13.13;;;19.10;32.50;;;;;;5055826;28;20036;-57
2022/12/04 02:16:49;;;;;;;17.17;13.23;;;19.10;32.50;;;;;;5056183;28;20484;-56
2022/12/04 02:19:52;;;;;;;19.20;12.98;;;19.10;32.50;;;;;;5053317;28;20183;-56
2022/12/04 02:22:56;;;;;;;17.10;13.32;;;19.00;32.40;;;;;;5053611;28;20029;-54
2022/12/04 02:25:38;;;;;;;17.17;13.18;;;19.00;32.40;;;;;;5019280;28;20044;-55
2022/12/04 02:28:21;;;;;;;19.17;13.27;;;19.10;32.40;;;;;;5035639;28;20365;-55
2022/12/04 02:30:50;;;;;;;18.17;13.18;;;19.00;32.40;;;;;;5035880;28;20065;-53
2022/12/04 02:33:18;;;;;;;18.00;13.18;;;19.00;32.40;;;;;;5036247;28;20045;-58
2022/12/04 02:36:04;;;;;;;17.55;12.65;;;19.00;32.40;;;;;;5054006;28;20037;-53
2022/12/04 02:38:43;;;;;;;16.42;12.65;;;19.00;32.40;;;;;;5055358;28;20025;-58
2022/12/04 02:41:29;;;;;;;18.40;13.52;;;19.00;32.40;;;;;;5055514;28;20068;-54
2022/12/04 02:44:02;;;;;;;19.20;13.52;;;19.00;32.40;;;;;;5052779;28;20363;-52
2022/12/04 02:46:41;;;;;;;16.67;12.68;;;19.00;32.30;;;;;;5037851;28;20037;-57
2022/12/04 02:49:13;;;;;;;18.23;13.38;;;19.00;32.30;;;;;;5035582;28;20030;-54
2022/12/04 02:51:41;;;;;;;17.50;12.95;;;19.00;32.40;;;;;;5017869;28;20368;-58
2022/12/04 02:54:25;;;;;;;17.58;13.02;;;19.00;32.40;;;;;;5025255;28;20044;-55
2022/12/04 02:56:52;;;;;;;20.83;13.85;;;19.00;33.00;;;;;;5055142;28;20484;-57
2022/12/04 02:59:34;;;;;;;18.27;13.23;;;19.00;32.30;;;;;;5051998;28;20029;-56
2022/12/04 03:02:07;;;;;;;17.73;13.32;;;19.00;32.30;;;;;;5037650;28;20037;-57
2022/12/04 03:04:33;;;;;;;18.10;13.35;;;18.90;32.30;;;;;;5054910;28;20035;-52
2022/12/04 03:07:04;;;;;;;17.08;12.88;;;19.00;32.30;;;;;;5037441;28;20033;-55
2022/12/04 03:09:43;;;;;;;16.23;12.38;;;18.90;32.20;;;;;;5052857;28;20108;-56
2022/12/04 03:12:22;;;;;;;16.95;13.65;;;18.90;32.30;;;;;;5054083;28;20451;-56
2022/12/04 03:14:56;;;;;;;19.15;13.88;;;18.90;32.20;;;;;;5054689;28;20167;-55
2022/12/04 03:17:37;;;;;;;18.02;13.68;;;18.90;32.20;;;;;;5054824;28;20044;-56
2022/12/04 03:20:09;;;;;;;17.50;12.88;;;18.90;32.20;;;;;;5054601;28;20037;-54
2022/12/04 03:22:39;;;;;;;17.20;13.18;;;18.90;32.30;;;;;;5052788;28;20037;-56
2022/12/04 03:25:07;;;;;;;16.67;13.00;;;18.90;32.20;;;;;;5053284;28;20039;-57
2022/12/04 03:27:42;;;;;;;20.58;13.75;;;18.90;32.30;;;;;;5055020;28;20055;-52
2022/12/04 03:30:11;;;;;;;;;;;18.90;32.20;;;;;;5055508;28;20061;-56
2022/12/04 03:32:43;;;;;;;16.00;12.50;;;18.90;32.20;;;;;;5052622;28;19921;-56
2022/12/04 03:35:15;;;;;;;16.50;13.23;;;18.90;32.20;;;;;;5054247;28;20037;-55
2022/12/04 03:37:49;;;;;;;17.92;13.93;;;18.90;32.30;;;;;;5054227;28;20033;-53
2022/12/04 03:40:20;;;;;;;17.92;13.15;;;18.80;32.20;;;;;;5054860;28;20119;-54
2022/12/04 03:42:55;;;;;;;17.90;13.73;;;18.90;32.40;;;;;;5053447;28;20029;-54
2022/12/04 03:45:25;;;;;;;;;;;18.90;32.30;;;;;;5053628;28;20029;-57
2022/12/04 03:48:00;;;;;;;17.73;13.27;;;18.90;32.40;;;;;;5054806;28;19955;-54
2022/12/04 03:50:46;;;;;;;18.13;14.15;;;18.90;32.30;;;;;;5054432;28;20036;-54
2022/12/04 03:53:53;;;;;;;17.65;12.93;;;18.90;32.30;;;;;;5053859;28;20036;-56
2022/12/04 03:56:28;;;;;;;15.57;12.85;;;18.80;32.30;;;;;;4972219;28;20430;-54
2022/12/04 03:59:02;;;;;;;15.35;12.07;;;18.80;32.30;;;;;;4958188;28;20618;-52
2022/12/04 04:01:35;;;;;;;18.30;13.55;;;18.80;32.40;;;;;;5001090;28;20131;-55
2022/12/04 04:04:06;;;;;;;16.05;12.63;;;18.80;32.50;;;;;;5037600;28;20060;-57
2022/12/04 04:06:37;;;;;;;18.95;13.52;;;18.80;32.50;;;;;;5036584;28;20090;-57
2022/12/04 04:09:14;;;;;;;17.77;13.45;;;18.80;32.50;;;;;;5051230;28;20033;-57
2022/12/04 04:11:53;;;;;;;16.58;12.85;;;18.80;32.50;;;;;;5054563;28;20460;-51
2022/12/04 04:25:50;;;;;;;16.20;13.20;;;18.80;32.50;;;;;;5052669;28;20037;-52
2022/12/04 04:28:36;;;;;;;17.05;13.15;;;18.70;32.40;;;;;;5052891;28;20393;-55
2022/12/04 04:31:26;;;;;;;17.42;13.52;;;18.80;32.60;;;;;;5037648;28;20043;-53
2022/12/04 04:34:18;;;;;;;17.90;13.10;;;18.70;32.50;;;;;;5057677;28;20051;-56
2022/12/04 04:37:20;;;;;;;16.17;12.82;;;18.70;32.40;;;;;;5044713;28;20106;-55
2022/12/04 04:40:08;;;;;;;16.40;12.60;;;18.70;32.60;;;;;;5019144;28;20395;-56
2022/12/04 04:43:03;;;;;;;15.35;12.77;;;18.70;32.60;;;;;;5040365;28;20032;-55
2022/12/04 04:45:46;;;;;;;16.33;12.30;;;18.70;32.70;;;;;;5000823;28;20048;-57
2022/12/04 04:48:25;;;;;;;16.05;12.40;;;18.70;32.70;;;;;;5057544;28;20093;-53
2022/12/04 04:50:52;;;;;;;15.30;12.30;;;18.70;32.60;;;;;;5057725;28;20429;-55
2022/12/04 04:53:21;;;;;;;15.93;13.20;;;18.70;32.60;;;;;;5055795;28;20172;-52
2022/12/04 04:55:48;;;;;;;17.85;13.25;;;18.70;32.50;;;;;;5056599;28;20120;-55
2022/12/04 04:58:18;;;;;;;17.75;13.60;;;18.70;32.50;;;;;;5056879;28;20064;-57
2022/12/04 05:00:55;;;;;;;17.20;13.52;;;18.70;32.50;;;;;;5057432;28;20040;-53
2022/12/04 05:03:21;;;;;;;17.20;12.77;;;18.70;32.50;;;;;;5057578;28;20036;-54
2022/12/04 05:05:47;;;;;;;15.23;12.55;;;18.70;32.40;;;;;;5054917;28;20025;-54
2022/12/04 05:08:12;;;;;;;18.42;13.27;;;18.70;32.40;;;;;;5056735;28;20448;-57
2022/12/04 05:10:38;;;;;;;17.88;13.38;;;18.70;32.40;;;;;;5056777;28;20045;-55
2022/12/04 05:13:04;;;;;;;16.45;12.88;;;18.70;32.40;;;;;;5057092;28;20041;-53
2022/12/04 05:15:30;;;;;;;15.52;12.10;;;18.70;32.40;;;;;;5057161;28;20033;-53
2022/12/04 05:17:55;;;;;;;18.00;13.48;;;18.70;32.40;;;;;;5054521;28;20074;-57
2022/12/04 05:20:21;;;;;;;15.95;12.52;;;18.70;32.40;;;;;;5056835;28;20110;-52
2022/12/04 05:22:47;;;;;;;17.75;13.25;;;18.70;32.40;;;;;;5056803;28;20033;-55
2022/12/04 05:25:13;;;;;;;16.30;11.95;;;18.70;32.40;;;;;;5038975;28;20036;-53
2022/12/04 05:27:39;;;;;;;17.05;13.20;;;18.70;32.40;;;;;;5056995;28;20098;-56
2022/12/04 05:30:05;;;;;;;16.55;12.48;;;18.70;32.40;;;;;;5055102;28;20033;-53
2022/12/04 05:32:31;;;;;;;15.77;12.05;;;18.70;32.40;;;;;;5055577;28;20036;-53
2022/12/04 05:34:57;;;;;;;16.88;12.88;;;18.60;32.40;;;;;;5057147;28;20501;-53
2022/12/04 05:37:23;;;;;;;17.77;13.55;;;18.70;32.40;;;;;;5056434;28;20087;-54
2022/12/04 05:39:49;;;;;;;16.73;12.73;;;18.60;32.30;;;;;;5055753;28;20522;-56
2022/12/04 05:42:16;;;;;;;17.08;12.45;;;18.70;32.40;;;;;;5054213;28;20033;-54
2022/12/04 05:44:43;;;;;;;15.40;12.15;;;18.60;32.30;;;;;;5056047;28;20032;-56
2022/12/04 05:47:09;;;;;;;15.82;11.82;;;18.60;32.70;;;;;;5056136;28;20459;-52
2022/12/04 05:49:35;;;;;;;16.52;12.90;;;18.60;32.30;;;;;;5056073;28;20119;-55
2022/12/04 05:52:02;;;;;;;15.48;12.15;;;18.60;32.30;;;;;;5056055;28;20352;-57
2022/12/04 05:54:28;;;;;;;15.80;12.00;;;18.60;32.40;;;;;;5053114;28;20037;-56
2022/12/04 05:56:54;;;;;;;17.73;13.10;;;18.60;32.40;;;;;;5056155;28;20028;-52
2022/12/04 05:59:20;;;;;;;15.82;12.55;;;18.60;32.40;;;;;;5053652;28;20043;-55
2022/12/04 06:01:45;;;;;;;16.02;12.18;;;18.60;32.40;;;;;;5055640;28;20075;-54
2022/12/04 06:04:11;;;;;;;16.55;12.45;;;18.60;32.40;;;;;;5055731;28;20041;-53
2022/12/04 06:06:37;;;;;;;16.98;12.95;;;18.60;32.40;;;;;;5054644;28;20179;-55
2022/12/04 06:09:05;;;;;;;16.30;12.18;;;18.60;32.40;;;;;;5055792;28;20352;-52
2022/12/04 06:11:36;;;;;;;15.65;11.63;;;18.60;32.40;;;;;;5055910;28;20043;-55
2022/12/04 06:14:05;;;;;;;15.60;12.30;;;18.50;32.30;;;;;;5055647;28;20047;-56
2022/12/04 06:16:35;;;;;;;16.15;12.27;;;18.60;32.40;;;;;;5055567;28;20348;-56
2022/12/04 06:19:03;;;;;;;15.70;11.43;;;18.60;32.40;;;;;;5055013;28;20032;-54
2022/12/04 06:21:31;;;;;;;14.52;11.57;;;18.50;32.30;;;;;;5038574;28;20060;-54
2022/12/04 06:23:57;;;;;;;15.23;11.80;;;18.60;32.40;;;;;;5055182;28;20330;-53
2022/12/04 06:26:24;;;;;;;17.30;12.77;;;18.60;32.40;;;;;;5055690;28;20115;-55
2022/12/04 06:28:55;;;;;;;15.40;12.32;;;18.60;32.40;;;;;;5054361;28;20456;-56
2022/12/04 06:31:22;;;;;;;15.10;12.13;;;18.60;32.40;;;;;;5055391;28;20107;-55
2022/12/04 06:33:49;;;;;;;14.20;11.65;;;18.50;32.30;;;;;;5055844;28;20033;-58
2022/12/04 06:36:17;;;;;;;14.35;11.88;;;18.50;32.30;;;;;;5055661;28;20033;-56
2022/12/04 06:38:44;;;;;;;13.52;11.30;;;18.50;32.30;;;;;;5055119;28;20036;-52
2022/12/04 06:41:12;;;;;;;15.98;12.35;;;18.50;32.40;;;;;;5053908;28;20036;-57
2022/12/04 06:43:39;;;;;;;14.23;11.15;;;18.50;32.40;;;;;;5053727;28;20484;-56
2022/12/04 06:46:10;;;;;;;16.25;12.35;;;18.50;32.40;;;;;;5055739;28;20039;-56
2022/12/04 06:48:37;;;;;;;16.95;12.18;;;18.50;32.40;;;;;;5055478;28;20028;-54
2022/12/04 06:51:04;;;;;;;15.20;11.88;;;18.50;32.40;;;;;;5036036;28;20029;-55
2022/12/04 06:53:31;;;;;;;15.88;12.05;;;18.50;32.40;;;;;;5053251;28;20044;-56
2022/12/04 06:56:02;;;;;;;14.25;11.85;;;18.50;32.50;;;;;;5053838;28;20031;-54
2022/12/04 06:58:29;;;;;;;14.52;11.50;;;18.50;32.50;;;;;;5055366;28;20108;-54
2022/12/04 07:00:56;;;;;;;13.73;11.00;;;18.50;32.60;;;;;;5054762;28;20029;-55
2022/12/04 07:03:22;;;;;;;14.55;11.70;;;18.50;32.70;;;;;;5054497;28;20094;-57
2022/12/04 07:05:49;;;;;;;16.33;11.18;;;18.50;32.70;;;;;;5050613;28;20025;-57
2022/12/04 07:08:15;;;;;;;15.20;11.85;;;18.50;33.40;;;;;;5054290;28;20032;-58
2022/12/04 07:10:41;;;;;;;16.20;11.85;;;18.50;32.70;;;;;;5055105;28;20063;-53
2022/12/04 07:13:07;;;;;;;15.20;11.48;;;18.50;32.70;;;;;;5054440;28;20049;-57
2022/12/04 07:15:35;;;;;;;13.85;10.68;;;18.50;32.80;;;;;;5054255;28;20057;-57
2022/12/04 07:18:01;;;;;;;15.70;11.73;;;18.50;32.80;;;;;;5054217;28;20039;-57
2022/12/04 07:20:28;;;;;;;15.02;11.07;;;18.50;32.80;;;;;;5054757;28;20036;-55
2022/12/04 07:22:54;;;;;;;13.80;10.93;;;18.50;32.90;;;;;;5053884;28;20029;-54
2022/12/04 07:25:20;;;;;;;15.45;10.93;;;18.50;32.90;;;;;;5055167;28;20419;-55
2022/12/04 07:27:46;;;;;;;15.95;11.50;;;18.50;33.00;;;;;;5035901;28;20063;-54
2022/12/04 07:30:12;;;;;;;13.98;11.07;;;18.50;33.10;;;;;;5053750;28;20025;-56
2022/12/04 07:32:38;;;;;;;14.20;10.60;;;18.40;33.10;;;;;;5054423;28;20033;-57
2022/12/04 07:35:05;;;;;;;15.48;11.70;;;18.50;33.10;;;;;;5054526;28;20113;-54
2022/12/04 07:37:33;;;;;;;17.38;11.48;;;18.50;33.00;;;;;;5055068;28;20033;-58
2022/12/04 07:39:59;;;;;;;13.77;10.93;;;18.40;32.90;;;;;;5053321;28;20048;-56
2022/12/04 07:42:26;;;;;;;13.82;10.50;;;18.50;33.00;;;;;;5051769;28;20037;-55
2022/12/04 07:44:52;;;;;;;16.05;10.60;;;18.50;33.00;;;;;;5051959;28;20036;-55
2022/12/04 07:47:18;;;;;;;15.75;11.57;;;18.50;32.90;;;;;;5054505;28;20392;-57
2022/12/04 07:49:44;;;;;;;14.57;10.77;;;18.50;32.90;;;;;;5051420;28;20108;-57
2022/12/04 07:52:09;;;;;;;14.50;10.57;;;18.50;32.90;;;;;;5054245;28;20455;-55
2022/12/04 07:54:35;;;;;;;16.17;11.13;;;18.60;32.90;;;;;;5053872;28;20337;-55
2022/12/04 07:57:01;;;;;;;15.23;10.60;;;18.60;32.80;;;;;;5054571;28;20116;-56
2022/12/04 07:59:27;;;;;;;16.02;12.02;;;18.70;32.80;;;;;;5053595;28;20110;-54
2022/12/04 08:01:53;;;;;;;15.48;11.50;;;18.70;32.80;;;;;;5033545;28;20025;-57
2022/12/04 08:04:19;;;;;;;15.30;11.25;;;18.80;33.40;;;;;;5052218;28;20041;-58
2022/12/04 08:06:44;;;;;;;16.20;10.98;;;18.90;32.70;;;;;;5056447;28;20648;-57
2022/12/04 08:09:10;;;;;;;14.45;10.73;;;18.90;32.60;;;;;;5057839;28;20037;-53
2022/12/04 08:11:37;;;;;;;13.45;11.57;;;19.00;32.60;;;;;;5058057;28;20360;-54
2022/12/04 08:14:04;;;;;;;14.80;11.25;;;19.10;32.50;;;;;;5055916;28;20041;-58
2022/12/04 08:16:31;;;;;;;15.35;11.02;;;19.10;32.40;;;;;;5056056;28;20035;-56
2022/12/04 08:18:58;;;;;;;14.80;11.52;;;19.20;32.40;;;;;;5056661;28;20032;-56
2022/12/04 08:21:27;;;;;;;15.77;11.38;;;19.30;32.30;;;;;;5054447;28;20037;-54
2022/12/04 08:23:55;;;;;;;13.95;10.55;;;19.40;32.20;;;;;;5054194;28;20051;-55
2022/12/04 08:26:22;;;;;;;14.75;11.10;;;19.40;32.20;;;;;;5052596;28;20037;-55
2022/12/04 08:28:51;;;;;;;14.27;11.30;;;19.50;32.10;;;;;;5054425;28;20037;-57
2022/12/04 08:31:19;;;;;;;14.70;10.75;;;19.60;32.10;;;;;;5056088;28;20056;-57
2022/12/04 08:33:47;;;;;;;14.30;11.07;;;19.60;32.00;;;;;;5057969;28;20068;-55
2022/12/04 08:36:16;;;;;;;14.98;11.23;;;19.70;31.90;;;;;;5057026;28;20032;-57
2022/12/04 08:38:42;;;;;;;14.65;10.45;;;19.80;31.90;;;;;;5056916;28;20095;-56
2022/12/04 08:41:12;;;;;;;14.98;10.48;;;19.80;31.80;;;;;;5057293;28;20054;-54
2022/12/04 08:43:38;;;;;;;13.43;10.15;;;19.90;31.80;;;;;;5057612;28;20060;-55
2022/12/04 08:46:07;;;;;;;14.02;10.85;;;20.00;31.80;;;;;;5057014;28;20064;-56
2022/12/04 08:48:33;;;;;;;13.65;10.50;;;20.00;31.60;;;;;;5057659;28;20056;-56
2022/12/04 08:50:59;;;;;;;15.52;10.90;;;20.10;31.70;;;;;;5057455;28;20112;-55
2022/12/04 08:53:25;;;;;;;13.45;10.55;;;20.10;31.60;;;;;;5056778;28;20089;-58
2022/12/04 08:55:52;;;;;;;12.77;10.88;;;20.10;31.60;;;;;;5057388;28;20375;-55
2022/12/04 08:58:18;;;;;;;13.13;9.95;;;20.20;31.50;;;;;;5057497;28;20021;-55
2022/12/04 09:00:44;;;;;;;16.05;10.80;;;20.20;31.40;;;;;;5057270;28;20037;-57
2022/12/04 09:03:16;;;;;;;13.65;10.13;;;20.20;31.30;;;;;;5056474;28;20073;-55
2022/12/04 09:05:44;;;;;;;12.85;10.15;;;20.30;31.30;;;;;;5056953;28;20025;-56
2022/12/04 09:08:11;;;;;;;13.13;10.40;;;20.30;31.30;;;;;;5056774;28;20029;-59
2022/12/04 09:10:38;;;;;;;13.70;10.20;;;20.30;31.20;;;;;;5057037;28;20422;-56
2022/12/04 09:13:04;;;;;;;12.30;9.68;;;20.40;31.20;;;;;;5056990;28;20051;-56
2022/12/04 09:15:30;;;;;;;13.43;9.57;;;20.50;31.20;;;;;;5056808;28;20318;-56
2022/12/04 09:17:56;;;;;;;12.32;9.63;;;20.50;31.10;;;;;;5050466;28;20029;-57
2022/12/04 09:20:23;;;;;;;13.57;9.75;;;20.50;31.10;;;;;;5055298;28;20031;-58
2022/12/04 09:22:49;;;;;;;12.23;9.55;;;20.50;31.00;;;;;;5050240;28;20082;-55
2022/12/04 09:25:15;;;;;;;11.73;9.50;;;20.50;30.90;;;;;;5054433;28;20033;-60
2022/12/04 09:27:42;;;;;;;17.02;12.85;;;20.60;30.90;;;;;;5057042;28;20104;-56
2022/12/04 09:30:10;;;;;;;20.63;15.23;;;20.60;30.90;;;;;;5055932;28;20033;-58
2022/12/04 09:32:36;;;;;;;19.75;12.75;;;20.40;29.50;;;;;;5056563;28;20084;-50
2022/12/04 09:35:03;;;;;;;18.23;13.20;;;20.20;29.30;;;;;;5054923;28;20082;-53
2022/12/04 09:37:29;;;;;;;18.92;13.85;;;20.00;29.40;;;;;;5056569;28;20490;-55
2022/12/04 09:39:54;;;;;;;16.48;12.00;;;19.90;29.40;;;;;;5056207;28;20033;-56
2022/12/04 09:42:32;;;;;;;16.90;11.82;;;19.80;29.40;;;;;;5052414;28;20496;-57
2022/12/04 09:45:01;;;;;;;16.58;11.50;;;19.70;30.00;;;;;;5054440;28;20465;-55
2022/12/04 09:47:34;;;;;;;16.83;11.57;;;19.70;29.60;;;;;;5054798;28;20025;-59
2022/12/04 09:50:00;;;;;;;16.30;11.50;;;19.70;29.60;;;;;;5056078;28;20087;-57
2022/12/04 09:52:47;;;;;;;13.68;9.55;;;19.80;30.00;;;;;;5056462;28;20440;-59
2022/12/04 09:55:52;;;;;;;14.55;9.88;;;19.80;30.40;;;;;;5055721;28;20033;-59
2022/12/04 09:58:21;;;;;;;14.98;10.00;;;19.80;31.00;;;;;;5025367;28;20036;-53
2022/12/04 10:00:51;;;;;;;17.52;10.27;;;19.90;31.50;;;;;;5055069;28;20399;-59
2022/12/04 10:03:19;;;;;;;16.02;10.38;;;19.90;32.40;;;;;;5056129;28;20083;-57
2022/12/04 10:06:13;;;;;;;18.02;10.50;;;20.00;33.40;;;;;;5055558;28;20061;-59
2022/12/04 10:08:40;;;;;;;16.55;10.77;;;20.00;34.00;;;;;;5055132;28;20025;-58
2022/12/04 10:11:24;;;;;;;19.10;10.20;;;20.00;34.50;;;;;;5055249;28;20387;-57
2022/12/04 10:14:12;;;;;;;18.42;11.13;;;20.10;35.30;;;;;;5056203;28;20033;-56
2022/12/04 10:17:15;;;;;;;25.33;12.93;;;20.20;36.10;;;;;;5055276;28;20029;-57
2022/12/04 10:19:44;;;;;;;25.17;13.60;;;20.20;36.70;;;;;;5053695;28;20029;-55
2022/12/04 10:22:32;;;;;;;25.08;13.82;;;20.20;37.80;;;;;;5038111;28;20045;-59
2022/12/04 10:25:21;;;;;;;25.25;14.30;;;20.30;38.30;;;;;;5055459;28;20078;-59
2022/12/04 10:28:05;;;;;;;25.15;15.07;;;20.30;38.20;;;;;;5042450;28;20037;-59
2022/12/04 10:30:34;;;;;;;25.00;13.68;;;20.30;38.40;;;;;;5055092;28;20032;-58
2022/12/04 10:33:12;;;;;;;21.05;12.50;;;20.30;38.70;;;;;;5055333;28;20047;-58
2022/12/04 10:35:42;;;;;;;24.17;13.15;;;20.40;39.00;;;;;;5055079;28;20025;-57
2022/12/04 10:38:45;;;;;;;22.52;11.63;;;20.40;38.70;;;;;;5055693;28;20025;-58
2022/12/04 10:41:29;;;;;;;21.40;12.45;;;20.40;38.70;;;;;;5054957;28;20029;-59
2022/12/04 10:43:55;;;;;;;20.00;11.35;;;20.40;37.80;;;;;;5054748;28;20036;-59
2022/12/04 10:46:28;;;;;;;18.40;10.90;;;20.40;36.40;;;;;;5055535;28;20029;-59
2022/12/04 10:48:58;;;;;;;14.35;9.88;;;20.40;35.20;;;;;;5055689;28;20048;-59
2022/12/04 10:51:24;;;;;;;15.85;9.65;;;20.30;34.10;;;;;;5054984;28;20029;-58
2022/12/04 10:53:51;;;;;;;12.90;9.07;;;20.20;33.60;;;;;;5054883;28;20045;-54
2022/12/04 10:56:25;;;;;;;11.30;8.20;;;20.10;33.20;;;;;;5055303;28;20428;-58
2022/12/04 10:58:55;;;;;;;12.23;7.95;;;20.10;33.10;;;;;;5054526;28;20338;-58
2022/12/04 11:01:21;;;;;;;14.27;8.40;;;20.10;33.20;;;;;;5052707;28;20033;-58
2022/12/04 11:04:00;;;;;;;11.85;7.97;;;20.20;33.40;;;;;;5053896;28;20028;-56
2022/12/04 11:06:27;;;;;;;14.63;8.98;;;20.20;34.00;;;;;;5054207;28;20341;-55
2022/12/04 11:08:54;;;;;;;15.32;8.75;;;20.20;34.60;;;;;;5053554;28;20051;-59
2022/12/04 11:11:30;;;;;;;15.48;9.13;;;20.20;35.00;;;;;;5036979;28;20139;-58
2022/12/04 11:14:17;;;;;;;16.73;8.48;;;20.30;35.20;;;;;;5054124;28;20029;-62
2022/12/04 11:16:47;;;;;;;12.75;7.50;;;20.30;35.10;;;;;;5050618;28;20025;-59
2022/12/04 11:19:24;;;;;;;12.68;7.72;;;20.30;35.00;;;;;;5047405;28;20411;-59
2022/12/04 11:21:53;;;;;;;12.52;7.00;;;20.40;34.70;;;;;;5047389;28;20035;-58
2022/12/04 11:24:22;;;;;;;10.65;7.07;;;20.40;34.40;;;;;;5048357;28;20087;-58
2022/12/04 11:26:49;;;;;;;11.05;7.03;;;20.40;34.10;;;;;;5017786;28;20423;-59
2022/12/04 11:29:17;;;;;;;12.73;7.00;;;20.50;33.90;;;;;;5044718;28;20455;-60
2022/12/04 11:31:53;;;;;;;9.63;6.75;;;20.50;33.60;;;;;;5048110;28;20371;-58
2022/12/04 11:34:24;;;;;;;9.80;5.97;;;20.60;33.40;;;;;;5047327;28;20033;-57
2022/12/04 11:36:56;;;;;;;9.40;6.05;;;20.60;33.40;;;;;;5050527;28;20513;-58
2022/12/04 11:39:21;;;;;;;12.38;6.28;;;20.60;33.30;;;;;;5050606;28;20029;-52
2022/12/04 11:42:05;;;;;;;9.98;6.20;;;20.60;33.20;;;;;;5058730;28;20190;-56
2022/12/04 11:44:34;;;;;;;8.40;5.68;;;20.70;33.10;;;;;;5057648;28;20024;-56
2022/12/04 11:47:03;;;;;;;9.52;5.60;;;20.70;32.90;;;;;;5058663;28;20037;-59
2022/12/04 11:49:31;;;;;;;7.10;5.32;;;20.70;32.80;;;;;;5058345;28;20017;-57
2022/12/04 11:52:29;;;;;;;7.65;5.32;;;20.80;32.70;;;;;;5058731;28;20337;-54
2022/12/04 11:54:54;;;;;;;8.88;6.38;;;20.80;32.50;;;;;;5058569;28;20120;-56
2022/12/04 11:57:20;;;;;;;9.48;5.82;;;20.80;32.50;;;;;;5056243;28;20191;-56
2022/12/04 12:00:29;;;;;;;9.25;5.70;;;20.80;32.50;;;;;;5056022;28;20384;-55
2022/12/04 12:03:25;;;;;;;7.63;5.57;;;20.80;32.30;;;;;;5049660;28;20037;-58
2022/12/04 12:06:24;;;;;;;8.77;5.45;;;20.80;32.20;;;;;;5055471;28;20067;-60
2022/12/04 12:09:19;;;;;;;8.05;5.10;;;20.80;32.10;;;;;;5036377;28;20065;-60
2022/12/04 12:12:18;;;;;;;7.38;5.18;;;20.80;32.00;;;;;;5054255;28;20064;-56
2022/12/04 12:15:17;;;;;;;7.60;5.13;;;20.80;32.00;;;;;;5056416;28;20475;-61
2022/12/04 12:18:11;;;;;;;7.82;4.85;;;20.80;32.00;;;;;;5051910;28;20160;-59
2022/12/04 12:21:04;;;;;;;7.57;5.20;;;20.80;31.90;;;;;;5052889;28;20051;-61
2022/12/04 12:24:01;;;;;;;6.32;4.82;;;20.80;31.80;;;;;;5033227;28;20096;-64
2022/12/04 12:26:44;;;;;;;9.05;5.07;;;20.80;32.00;;;;;;5035602;28;20041;-63
2022/12/04 12:29:18;;;;;;;7.43;4.82;;;20.80;32.50;;;;;;5051981;28;20416;-62
2022/12/04 12:32:03;;;;;;;10.30;4.95;;;20.80;32.90;;;;;;5019609;28;20037;-58
2022/12/04 12:34:36;;;;;;;9.30;4.95;;;20.80;33.20;;;;;;5043912;28;20026;-61
2022/12/04 12:37:10;;;;;;;7.82;5.15;;;20.80;33.30;;;;;;5047739;28;20033;-64
2022/12/04 12:39:45;;;;;;;11.15;4.72;;;20.80;33.40;;;;;;5039196;28;20167;-61
2022/12/04 12:42:18;;;;;;;7.32;4.65;;;20.80;33.40;;;;;;5056009;28;20068;-60
2022/12/04 12:44:53;;;;;;;7.22;4.57;;;20.90;33.40;;;;;;5049806;28;20117;-60
2022/12/04 12:47:24;;;;;;;6.97;4.43;;;20.90;33.20;;;;;;5048207;28;20033;-61
2022/12/04 12:49:56;;;;;;;7.15;4.38;;;20.90;33.10;;;;;;5051492;28;20356;-62
2022/12/04 12:52:44;;;;;;;7.65;4.13;;;20.90;33.10;;;;;;5048596;28;20037;-62
2022/12/04 12:55:25;;;;;;;7.18;4.60;;;20.90;33.00;;;;;;5044536;28;20029;-61
2022/12/04 12:58:20;;;;;;;6.13;4.43;;;20.90;32.90;;;;;;5056333;28;20029;-60
2022/12/04 13:00:55;;;;;;;6.72;4.68;;;20.90;32.90;;;;;;5040090;28;20075;-60
2022/12/04 13:03:44;;;;;;;5.85;4.32;;;21.00;33.00;;;;;;5050057;28;20040;-63
2022/12/04 13:06:18;;;;;;;6.25;4.22;;;21.00;32.90;;;;;;5035985;28;20040;-62